<?xml version="1.0" encoding="UTF-8" standalone="no" ?>
<gpx xmlns="http://www.topografix.com/GPX/1/1" creator="MapSource 6.11.6" version="1.1" xmlns:xsi="http://www.w3.org/2001/XMLSchema-instance" xsi:schemaLocation="http://www.topografix.com/GPX/1/1 http://www.topografix.com/GPX/1/1/gpx.xsd">

  <metadata>
    <link href="http://www.garmin.com">
      <text>Garmin International</text>
    </link>
    <time>2008-10-29T21:05:24Z</time>
    <bounds maxlat="50.640989" maxlon="6.389722" minlat="50.627388" minlon="6.366233"/>
  </metadata>

  <trk>
    <name>Woffelsbach-Steckenborn</name>
    <extensions>
      <gpxx:TrackExtension xmlns:gpxx="http://www.garmin.com/xmlschemas/GpxExtensions/v3" xmlns:xsi="http://www.w3.org/2001/XMLSchema-instance" xsi:schemaLocation="http://www.garmin.com/xmlschemas/GpxExtensions/v3 http://www.garmin.com/xmlschemas/GpxExtensions/v3/GpxExtensionsv3.xsd">
        <gpxx:DisplayColor>White</gpxx:DisplayColor>
      </gpxx:TrackExtension>
    </extensions>
    <trkseg>
      <trkpt lat="50.629555" lon="6.384032">
        <ele>302.000000</ele>
        <time>2008-10-29T22:02:39Z</time>
      </trkpt>
      <trkpt lat="50.629989" lon="6.384456">
        <ele>319.000000</ele>
        <time>2008-10-29T22:02:59Z</time>
      </trkpt>
      <trkpt lat="50.630111" lon="6.384582">
        <ele>319.000000</ele>
        <time>2008-10-29T22:03:05Z</time>
      </trkpt>
      <trkpt lat="50.630287" lon="6.384857">
        <ele>304.000000</ele>
        <time>2008-10-29T22:03:15Z</time>
      </trkpt>
      <trkpt lat="50.630397" lon="6.384942">
        <ele>304.000000</ele>
        <time>2008-10-29T22:03:20Z</time>
      </trkpt>
      <trkpt lat="50.631214" lon="6.385133">
        <ele>321.000000</ele>
        <time>2008-10-29T22:03:53Z</time>
      </trkpt>
      <trkpt lat="50.631343" lon="6.385041">
        <ele>325.000000</ele>
        <time>2008-10-29T22:03:58Z</time>
      </trkpt>
      <trkpt lat="50.631598" lon="6.384572">
        <ele>332.000000</ele>
        <time>2008-10-29T22:04:14Z</time>
      </trkpt>
      <trkpt lat="50.631726" lon="6.384438">
        <ele>332.000000</ele>
        <time>2008-10-29T22:04:20Z</time>
      </trkpt>
      <trkpt lat="50.631848" lon="6.384365">
        <ele>332.000000</ele>
        <time>2008-10-29T22:04:25Z</time>
      </trkpt>
      <trkpt lat="50.631918" lon="6.384391">
        <ele>332.000000</ele>
        <time>2008-10-29T22:04:28Z</time>
      </trkpt>
      <trkpt lat="50.631961" lon="6.384443">
        <ele>332.000000</ele>
        <time>2008-10-29T22:04:31Z</time>
      </trkpt>
      <trkpt lat="50.632040" lon="6.384699">
        <ele>325.000000</ele>
        <time>2008-10-29T22:04:38Z</time>
      </trkpt>
      <trkpt lat="50.632124" lon="6.385525">
        <ele>333.000000</ele>
        <time>2008-10-29T22:04:59Z</time>
      </trkpt>
      <trkpt lat="50.632133" lon="6.385730">
        <ele>333.000000</ele>
        <time>2008-10-29T22:05:04Z</time>
      </trkpt>
      <trkpt lat="50.632114" lon="6.385931">
        <ele>333.000000</ele>
        <time>2008-10-29T22:05:09Z</time>
      </trkpt>
      <trkpt lat="50.631951" lon="6.386740">
        <ele>309.000000</ele>
        <time>2008-10-29T22:05:31Z</time>
      </trkpt>
      <trkpt lat="50.631932" lon="6.386898">
        <ele>309.000000</ele>
        <time>2008-10-29T22:05:35Z</time>
      </trkpt>
      <trkpt lat="50.631927" lon="6.387014">
        <ele>309.000000</ele>
        <time>2008-10-29T22:05:38Z</time>
      </trkpt>
      <trkpt lat="50.631953" lon="6.387298">
        <ele>305.000000</ele>
        <time>2008-10-29T22:05:45Z</time>
      </trkpt>
      <trkpt lat="50.632129" lon="6.388258">
        <ele>320.000000</ele>
        <time>2008-10-29T22:06:11Z</time>
      </trkpt>
      <trkpt lat="50.632317" lon="6.388792">
        <ele>305.000000</ele>
        <time>2008-10-29T22:06:26Z</time>
      </trkpt>
      <trkpt lat="50.632483" lon="6.388982">
        <ele>305.000000</ele>
        <time>2008-10-29T22:06:34Z</time>
      </trkpt>
      <trkpt lat="50.632951" lon="6.389235">
        <ele>326.000000</ele>
        <time>2008-10-29T22:06:54Z</time>
      </trkpt>
      <trkpt lat="50.633348" lon="6.389722">
        <ele>307.000000</ele>
        <time>2008-10-29T22:07:14Z</time>
      </trkpt>
      <trkpt lat="50.633478" lon="6.389685">
        <ele>307.000000</ele>
        <time>2008-10-29T22:07:20Z</time>
      </trkpt>
      <trkpt lat="50.633767" lon="6.389687">
        <ele>305.000000</ele>
        <time>2008-10-29T22:07:31Z</time>
      </trkpt>
      <trkpt lat="50.634050" lon="6.389580">
        <ele>331.000000</ele>
        <time>2008-10-29T22:07:43Z</time>
      </trkpt>
      <trkpt lat="50.634350" lon="6.389576">
        <ele>331.000000</ele>
        <time>2008-10-29T22:07:55Z</time>
      </trkpt>
      <trkpt lat="50.634613" lon="6.389446">
        <ele>322.000000</ele>
        <time>2008-10-29T22:08:06Z</time>
      </trkpt>
      <trkpt lat="50.634858" lon="6.389566">
        <ele>322.000000</ele>
        <time>2008-10-29T22:08:16Z</time>
      </trkpt>
      <trkpt lat="50.634943" lon="6.389543">
        <ele>322.000000</ele>
        <time>2008-10-29T22:08:20Z</time>
      </trkpt>
      <trkpt lat="50.635312" lon="6.389353">
        <ele>322.000000</ele>
        <time>2008-10-29T22:08:35Z</time>
      </trkpt>
      <trkpt lat="50.635554" lon="6.389473">
        <ele>311.000000</ele>
        <time>2008-10-29T22:08:45Z</time>
      </trkpt>
      <trkpt lat="50.635654" lon="6.389479">
        <ele>311.000000</ele>
        <time>2008-10-29T22:08:49Z</time>
      </trkpt>
      <trkpt lat="50.635718" lon="6.389409">
        <ele>311.000000</ele>
        <time>2008-10-29T22:08:52Z</time>
      </trkpt>
      <trkpt lat="50.635815" lon="6.389246">
        <ele>311.000000</ele>
        <time>2008-10-29T22:08:58Z</time>
      </trkpt>
      <trkpt lat="50.636096" lon="6.389231">
        <ele>311.000000</ele>
        <time>2008-10-29T22:09:09Z</time>
      </trkpt>
      <trkpt lat="50.636164" lon="6.389184">
        <ele>311.000000</ele>
        <time>2008-10-29T22:09:12Z</time>
      </trkpt>
      <trkpt lat="50.636235" lon="6.389102">
        <ele>311.000000</ele>
        <time>2008-10-29T22:09:16Z</time>
      </trkpt>
      <trkpt lat="50.636489" lon="6.388566">
        <ele>309.000000</ele>
        <time>2008-10-29T22:09:33Z</time>
      </trkpt>
      <trkpt lat="50.636798" lon="6.387901">
        <ele>330.000000</ele>
        <time>2008-10-29T22:09:54Z</time>
      </trkpt>
      <trkpt lat="50.637326" lon="6.387393">
        <ele>305.000000</ele>
        <time>2008-10-29T22:10:18Z</time>
      </trkpt>
      <trkpt lat="50.637579" lon="6.387155">
        <ele>305.000000</ele>
        <time>2008-10-29T22:10:30Z</time>
      </trkpt>
      <trkpt lat="50.638402" lon="6.386067">
        <ele>312.000000</ele>
        <time>2008-10-29T22:11:13Z</time>
      </trkpt>
      <trkpt lat="50.638758" lon="6.385429">
        <ele>304.000000</ele>
        <time>2008-10-29T22:11:35Z</time>
      </trkpt>
      <trkpt lat="50.638964" lon="6.385194">
        <ele>303.000000</ele>
        <time>2008-10-29T22:11:45Z</time>
      </trkpt>
      <trkpt lat="50.639053" lon="6.385207">
        <ele>303.000000</ele>
        <time>2008-10-29T22:11:49Z</time>
      </trkpt>
      <trkpt lat="50.639164" lon="6.385334">
        <ele>303.000000</ele>
        <time>2008-10-29T22:11:54Z</time>
      </trkpt>
      <trkpt lat="50.639249" lon="6.385529">
        <ele>304.000000</ele>
        <time>2008-10-29T22:12:00Z</time>
      </trkpt>
      <trkpt lat="50.639350" lon="6.385509">
        <ele>304.000000</ele>
        <time>2008-10-29T22:12:04Z</time>
      </trkpt>
      <trkpt lat="50.639673" lon="6.385354">
        <ele>307.000000</ele>
        <time>2008-10-29T22:12:18Z</time>
      </trkpt>
      <trkpt lat="50.640183" lon="6.384871">
        <ele>307.000000</ele>
        <time>2008-10-29T22:12:41Z</time>
      </trkpt>
      <trkpt lat="50.640530" lon="6.384386">
        <ele>327.000000</ele>
        <time>2008-10-29T22:13:00Z</time>
      </trkpt>
      <trkpt lat="50.640671" lon="6.383966">
        <ele>327.000000</ele>
        <time>2008-10-29T22:13:12Z</time>
      </trkpt>
      <trkpt lat="50.640748" lon="6.383440">
        <ele>316.000000</ele>
        <time>2008-10-29T22:13:26Z</time>
      </trkpt>
      <trkpt lat="50.640930" lon="6.382830">
        <ele>320.000000</ele>
        <time>2008-10-29T22:13:43Z</time>
      </trkpt>
      <trkpt lat="50.640989" lon="6.381691">
        <ele>324.000000</ele>
        <time>2008-10-29T22:14:12Z</time>
      </trkpt>
      <trkpt lat="50.640909" lon="6.381032">
        <ele>326.000000</ele>
        <time>2008-10-29T22:14:29Z</time>
      </trkpt>
      <trkpt lat="50.640888" lon="6.380606">
        <ele>326.000000</ele>
        <time>2008-10-29T22:14:40Z</time>
      </trkpt>
      <trkpt lat="50.640934" lon="6.380400">
        <ele>328.000000</ele>
        <time>2008-10-29T22:14:45Z</time>
      </trkpt>
      <trkpt lat="50.640612" lon="6.380139">
        <ele>328.000000</ele>
        <time>2008-10-29T22:15:00Z</time>
      </trkpt>
      <trkpt lat="50.640533" lon="6.380232">
        <ele>328.000000</ele>
        <time>2008-10-29T22:15:04Z</time>
      </trkpt>
      <trkpt lat="50.640449" lon="6.380251">
        <ele>328.000000</ele>
        <time>2008-10-29T22:15:07Z</time>
      </trkpt>
      <trkpt lat="50.640415" lon="6.380133">
        <ele>337.000000</ele>
        <time>2008-10-29T22:15:11Z</time>
      </trkpt>
      <trkpt lat="50.640350" lon="6.379984">
        <ele>337.000000</ele>
        <time>2008-10-29T22:15:15Z</time>
      </trkpt>
      <trkpt lat="50.640322" lon="6.379850">
        <ele>337.000000</ele>
        <time>2008-10-29T22:15:19Z</time>
      </trkpt>
      <trkpt lat="50.640310" lon="6.379726">
        <ele>337.000000</ele>
        <time>2008-10-29T22:15:22Z</time>
      </trkpt>
      <trkpt lat="50.640332" lon="6.379471">
        <ele>335.000000</ele>
        <time>2008-10-29T22:15:28Z</time>
      </trkpt>
      <trkpt lat="50.640322" lon="6.379258">
        <ele>335.000000</ele>
        <time>2008-10-29T22:15:34Z</time>
      </trkpt>
      <trkpt lat="50.640279" lon="6.379025">
        <ele>335.000000</ele>
        <time>2008-10-29T22:15:40Z</time>
      </trkpt>
      <trkpt lat="50.640211" lon="6.378796">
        <ele>335.000000</ele>
        <time>2008-10-29T22:15:46Z</time>
      </trkpt>
      <trkpt lat="50.640145" lon="6.378396">
        <ele>333.000000</ele>
        <time>2008-10-29T22:15:57Z</time>
      </trkpt>
      <trkpt lat="50.639998" lon="6.377899">
        <ele>337.000000</ele>
        <time>2008-10-29T22:16:11Z</time>
      </trkpt>
      <trkpt lat="50.639938" lon="6.376932">
        <ele>340.000000</ele>
        <time>2008-10-29T22:16:35Z</time>
      </trkpt>
      <trkpt lat="50.640155" lon="6.376299">
        <ele>340.000000</ele>
        <time>2008-10-29T22:16:54Z</time>
      </trkpt>
      <trkpt lat="50.640392" lon="6.375867">
        <ele>349.000000</ele>
        <time>2008-10-29T22:17:08Z</time>
      </trkpt>
      <trkpt lat="50.640484" lon="6.375508">
        <ele>366.000000</ele>
        <time>2008-10-29T22:17:18Z</time>
      </trkpt>
      <trkpt lat="50.640534" lon="6.374309">
        <ele>366.000000</ele>
        <time>2008-10-29T22:17:49Z</time>
      </trkpt>
      <trkpt lat="50.640609" lon="6.373686">
        <ele>369.000000</ele>
        <time>2008-10-29T22:18:05Z</time>
      </trkpt>
      <trkpt lat="50.640690" lon="6.373103">
        <ele>369.000000</ele>
        <time>2008-10-29T22:18:20Z</time>
      </trkpt>
      <trkpt lat="50.640747" lon="6.372237">
        <ele>367.000000</ele>
        <time>2008-10-29T22:18:42Z</time>
      </trkpt>
      <trkpt lat="50.640790" lon="6.371567">
        <ele>366.000000</ele>
        <time>2008-10-29T22:18:59Z</time>
      </trkpt>
      <trkpt lat="50.640776" lon="6.371387">
        <ele>366.000000</ele>
        <time>2008-10-29T22:19:04Z</time>
      </trkpt>
      <trkpt lat="50.640726" lon="6.370844">
        <ele>371.000000</ele>
        <time>2008-10-29T22:19:18Z</time>
      </trkpt>
      <trkpt lat="50.640763" lon="6.370387">
        <ele>376.000000</ele>
        <time>2008-10-29T22:19:29Z</time>
      </trkpt>
      <trkpt lat="50.640755" lon="6.369146">
        <ele>380.000000</ele>
        <time>2008-10-29T22:20:01Z</time>
      </trkpt>
      <trkpt lat="50.640506" lon="6.368098">
        <ele>383.000000</ele>
        <time>2008-10-29T22:20:29Z</time>
      </trkpt>
      <trkpt lat="50.640490" lon="6.367881">
        <ele>382.000000</ele>
        <time>2008-10-29T22:20:35Z</time>
      </trkpt>
      <trkpt lat="50.640500" lon="6.367706">
        <ele>382.000000</ele>
        <time>2008-10-29T22:20:39Z</time>
      </trkpt>
      <trkpt lat="50.640452" lon="6.367410">
        <ele>382.000000</ele>
        <time>2008-10-29T22:20:47Z</time>
      </trkpt>
      <trkpt lat="50.640485" lon="6.366809">
        <ele>381.000000</ele>
        <time>2008-10-29T22:21:02Z</time>
      </trkpt>
      <trkpt lat="50.640265" lon="6.366966">
        <ele>390.000000</ele>
        <time>2008-10-29T22:21:12Z</time>
      </trkpt>
      <trkpt lat="50.640220" lon="6.367024">
        <ele>390.000000</ele>
        <time>2008-10-29T22:21:14Z</time>
      </trkpt>
      <trkpt lat="50.640203" lon="6.367128">
        <ele>384.000000</ele>
        <time>2008-10-29T22:21:17Z</time>
      </trkpt>
      <trkpt lat="50.639971" lon="6.367705">
        <ele>384.000000</ele>
        <time>2008-10-29T22:21:34Z</time>
      </trkpt>
      <trkpt lat="50.639658" lon="6.368358">
        <ele>378.000000</ele>
        <time>2008-10-29T22:21:55Z</time>
      </trkpt>
      <trkpt lat="50.639509" lon="6.368579">
        <ele>410.000000</ele>
        <time>2008-10-29T22:22:03Z</time>
      </trkpt>
      <trkpt lat="50.639427" lon="6.368771">
        <ele>404.000000</ele>
        <time>2008-10-29T22:22:09Z</time>
      </trkpt>
      <trkpt lat="50.639348" lon="6.369048">
        <ele>404.000000</ele>
        <time>2008-10-29T22:22:17Z</time>
      </trkpt>
      <trkpt lat="50.638951" lon="6.369883">
        <ele>397.000000</ele>
        <time>2008-10-29T22:22:43Z</time>
      </trkpt>
      <trkpt lat="50.638808" lon="6.370375">
        <ele>397.000000</ele>
        <time>2008-10-29T22:22:57Z</time>
      </trkpt>
      <trkpt lat="50.638766" lon="6.369408">
        <ele>404.000000</ele>
        <time>2008-10-29T22:23:22Z</time>
      </trkpt>
      <trkpt lat="50.638808" lon="6.368679">
        <ele>410.000000</ele>
        <time>2008-10-29T22:23:40Z</time>
      </trkpt>
      <trkpt lat="50.638803" lon="6.368043">
        <ele>410.000000</ele>
        <time>2008-10-29T22:23:56Z</time>
      </trkpt>
      <trkpt lat="50.638702" lon="6.367381">
        <ele>437.000000</ele>
        <time>2008-10-29T22:24:14Z</time>
      </trkpt>
      <trkpt lat="50.638691" lon="6.366885">
        <ele>441.000000</ele>
        <time>2008-10-29T22:24:26Z</time>
      </trkpt>
      <trkpt lat="50.638764" lon="6.366303">
        <ele>420.000000</ele>
        <time>2008-10-29T22:24:41Z</time>
      </trkpt>
      <trkpt lat="50.638749" lon="6.366233">
        <ele>431.000000</ele>
        <time>2008-10-29T22:24:43Z</time>
      </trkpt>
      <trkpt lat="50.638060" lon="6.366587">
        <ele>441.000000</ele>
        <time>2008-10-29T22:25:12Z</time>
      </trkpt>
      <trkpt lat="50.638026" lon="6.366649">
        <ele>441.000000</ele>
        <time>2008-10-29T22:25:14Z</time>
      </trkpt>
      <trkpt lat="50.637207" lon="6.366889">
        <ele>454.000000</ele>
        <time>2008-10-29T22:25:48Z</time>
      </trkpt>
      <trkpt lat="50.636463" lon="6.367219">
        <ele>462.000000</ele>
        <time>2008-10-29T22:26:19Z</time>
      </trkpt>
      <trkpt lat="50.636073" lon="6.367438">
        <ele>472.000000</ele>
        <time>2008-10-29T22:26:35Z</time>
      </trkpt>
      <trkpt lat="50.634558" lon="6.368352">
        <ele>473.000000</ele>
        <time>2008-10-29T22:27:40Z</time>
      </trkpt>
      <trkpt lat="50.634445" lon="6.368098">
        <ele>473.000000</ele>
        <time>2008-10-29T22:27:48Z</time>
      </trkpt>
      <trkpt lat="50.634379" lon="6.368381">
        <ele>473.000000</ele>
        <time>2008-10-29T22:27:56Z</time>
      </trkpt>
      <trkpt lat="50.634391" lon="6.368773">
        <ele>472.000000</ele>
        <time>2008-10-29T22:28:06Z</time>
      </trkpt>
      <trkpt lat="50.634493" lon="6.369707">
        <ele>470.000000</ele>
        <time>2008-10-29T22:28:30Z</time>
      </trkpt>
      <trkpt lat="50.634603" lon="6.370179">
        <ele>475.000000</ele>
        <time>2008-10-29T22:28:43Z</time>
      </trkpt>
      <trkpt lat="50.634678" lon="6.370260">
        <ele>475.000000</ele>
        <time>2008-10-29T22:28:46Z</time>
      </trkpt>
      <trkpt lat="50.635012" lon="6.370708">
        <ele>475.000000</ele>
        <time>2008-10-29T22:29:04Z</time>
      </trkpt>
      <trkpt lat="50.635053" lon="6.370796">
        <ele>475.000000</ele>
        <time>2008-10-29T22:29:07Z</time>
      </trkpt>
      <trkpt lat="50.635302" lon="6.371928">
        <ele>474.000000</ele>
        <time>2008-10-29T22:29:37Z</time>
      </trkpt>
      <trkpt lat="50.635533" lon="6.372587">
        <ele>463.000000</ele>
        <time>2008-10-29T22:29:56Z</time>
      </trkpt>
      <trkpt lat="50.635603" lon="6.372814">
        <ele>463.000000</ele>
        <time>2008-10-29T22:30:02Z</time>
      </trkpt>
      <trkpt lat="50.635763" lon="6.373423">
        <ele>464.000000</ele>
        <time>2008-10-29T22:30:19Z</time>
      </trkpt>
      <trkpt lat="50.636046" lon="6.374158">
        <ele>466.000000</ele>
        <time>2008-10-29T22:30:41Z</time>
      </trkpt>
      <trkpt lat="50.636238" lon="6.374745">
        <ele>468.000000</ele>
        <time>2008-10-29T22:30:58Z</time>
      </trkpt>
      <trkpt lat="50.636307" lon="6.375256">
        <ele>456.000000</ele>
        <time>2008-10-29T22:31:11Z</time>
      </trkpt>
      <trkpt lat="50.636316" lon="6.375680">
        <ele>452.000000</ele>
        <time>2008-10-29T22:31:22Z</time>
      </trkpt>
      <trkpt lat="50.636074" lon="6.376905">
        <ele>461.000000</ele>
        <time>2008-10-29T22:31:54Z</time>
      </trkpt>
      <trkpt lat="50.635820" lon="6.378449">
        <ele>454.000000</ele>
        <time>2008-10-29T22:32:35Z</time>
      </trkpt>
      <trkpt lat="50.635767" lon="6.378554">
        <ele>454.000000</ele>
        <time>2008-10-29T22:32:38Z</time>
      </trkpt>
      <trkpt lat="50.635717" lon="6.378591">
        <ele>454.000000</ele>
        <time>2008-10-29T22:32:40Z</time>
      </trkpt>
      <trkpt lat="50.634421" lon="6.378330">
        <ele>438.000000</ele>
        <time>2008-10-29T22:33:33Z</time>
      </trkpt>
      <trkpt lat="50.633973" lon="6.378143">
        <ele>438.000000</ele>
        <time>2008-10-29T22:33:51Z</time>
      </trkpt>
      <trkpt lat="50.633652" lon="6.378009">
        <ele>431.000000</ele>
        <time>2008-10-29T22:34:05Z</time>
      </trkpt>
      <trkpt lat="50.633383" lon="6.378040">
        <ele>431.000000</ele>
        <time>2008-10-29T22:34:15Z</time>
      </trkpt>
      <trkpt lat="50.633202" lon="6.378085">
        <ele>431.000000</ele>
        <time>2008-10-29T22:34:23Z</time>
      </trkpt>
      <trkpt lat="50.631939" lon="6.378458">
        <ele>437.000000</ele>
        <time>2008-10-29T22:35:14Z</time>
      </trkpt>
      <trkpt lat="50.631316" lon="6.378654">
        <ele>437.000000</ele>
        <time>2008-10-29T22:35:40Z</time>
      </trkpt>
      <trkpt lat="50.631090" lon="6.378572">
        <ele>428.000000</ele>
        <time>2008-10-29T22:35:49Z</time>
      </trkpt>
      <trkpt lat="50.630875" lon="6.378331">
        <ele>428.000000</ele>
        <time>2008-10-29T22:36:00Z</time>
      </trkpt>
      <trkpt lat="50.630729" lon="6.378144">
        <ele>428.000000</ele>
        <time>2008-10-29T22:36:07Z</time>
      </trkpt>
      <trkpt lat="50.630512" lon="6.377593">
        <ele>436.000000</ele>
        <time>2008-10-29T22:36:23Z</time>
      </trkpt>
      <trkpt lat="50.630343" lon="6.376921">
        <ele>415.000000</ele>
        <time>2008-10-29T22:36:42Z</time>
      </trkpt>
      <trkpt lat="50.630352" lon="6.376626">
        <ele>415.000000</ele>
        <time>2008-10-29T22:36:49Z</time>
      </trkpt>
      <trkpt lat="50.630449" lon="6.376136">
        <ele>437.000000</ele>
        <time>2008-10-29T22:37:02Z</time>
      </trkpt>
      <trkpt lat="50.630711" lon="6.375295">
        <ele>432.000000</ele>
        <time>2008-10-29T22:37:26Z</time>
      </trkpt>
      <trkpt lat="50.630880" lon="6.374761">
        <ele>432.000000</ele>
        <time>2008-10-29T22:37:41Z</time>
      </trkpt>
      <trkpt lat="50.630906" lon="6.374557">
        <ele>421.000000</ele>
        <time>2008-10-29T22:37:47Z</time>
      </trkpt>
      <trkpt lat="50.630980" lon="6.373978">
        <ele>421.000000</ele>
        <time>2008-10-29T22:38:02Z</time>
      </trkpt>
      <trkpt lat="50.631123" lon="6.373397">
        <ele>411.000000</ele>
        <time>2008-10-29T22:38:17Z</time>
      </trkpt>
      <trkpt lat="50.631175" lon="6.373240">
        <ele>411.000000</ele>
        <time>2008-10-29T22:38:22Z</time>
      </trkpt>
      <trkpt lat="50.631335" lon="6.372900">
        <ele>431.000000</ele>
        <time>2008-10-29T22:38:33Z</time>
      </trkpt>
      <trkpt lat="50.632070" lon="6.371660">
        <ele>419.000000</ele>
        <time>2008-10-29T22:39:16Z</time>
      </trkpt>
      <trkpt lat="50.632177" lon="6.371518">
        <ele>447.000000</ele>
        <time>2008-10-29T22:39:21Z</time>
      </trkpt>
      <trkpt lat="50.632578" lon="6.370965">
        <ele>438.000000</ele>
        <time>2008-10-29T22:39:43Z</time>
      </trkpt>
      <trkpt lat="50.632638" lon="6.370852">
        <ele>438.000000</ele>
        <time>2008-10-29T22:39:46Z</time>
      </trkpt>
      <trkpt lat="50.632669" lon="6.370687">
        <ele>438.000000</ele>
        <time>2008-10-29T22:39:51Z</time>
      </trkpt>
      <trkpt lat="50.632705" lon="6.370424">
        <ele>438.000000</ele>
        <time>2008-10-29T22:39:58Z</time>
      </trkpt>
      <trkpt lat="50.632666" lon="6.369734">
        <ele>429.000000</ele>
        <time>2008-10-29T22:40:15Z</time>
      </trkpt>
      <trkpt lat="50.632585" lon="6.369353">
        <ele>431.000000</ele>
        <time>2008-10-29T22:40:25Z</time>
      </trkpt>
      <trkpt lat="50.632480" lon="6.369168">
        <ele>431.000000</ele>
        <time>2008-10-29T22:40:32Z</time>
      </trkpt>
      <trkpt lat="50.632316" lon="6.368738">
        <ele>433.000000</ele>
        <time>2008-10-29T22:40:45Z</time>
      </trkpt>
      <trkpt lat="50.632134" lon="6.368370">
        <ele>433.000000</ele>
        <time>2008-10-29T22:40:56Z</time>
      </trkpt>
      <trkpt lat="50.632025" lon="6.368209">
        <ele>427.000000</ele>
        <time>2008-10-29T22:41:02Z</time>
      </trkpt>
      <trkpt lat="50.631936" lon="6.368123">
        <ele>427.000000</ele>
        <time>2008-10-29T22:41:07Z</time>
      </trkpt>
      <trkpt lat="50.631868" lon="6.368139">
        <ele>427.000000</ele>
        <time>2008-10-29T22:41:09Z</time>
      </trkpt>
      <trkpt lat="50.631812" lon="6.368251">
        <ele>427.000000</ele>
        <time>2008-10-29T22:41:13Z</time>
      </trkpt>
      <trkpt lat="50.631914" lon="6.368657">
        <ele>427.000000</ele>
        <time>2008-10-29T22:41:24Z</time>
      </trkpt>
      <trkpt lat="50.631922" lon="6.368850">
        <ele>419.000000</ele>
        <time>2008-10-29T22:41:29Z</time>
      </trkpt>
      <trkpt lat="50.631847" lon="6.369267">
        <ele>419.000000</ele>
        <time>2008-10-29T22:41:40Z</time>
      </trkpt>
      <trkpt lat="50.631776" lon="6.369586">
        <ele>410.000000</ele>
        <time>2008-10-29T22:41:48Z</time>
      </trkpt>
      <trkpt lat="50.631731" lon="6.370149">
        <ele>410.000000</ele>
        <time>2008-10-29T22:42:03Z</time>
      </trkpt>
      <trkpt lat="50.631696" lon="6.370288">
        <ele>410.000000</ele>
        <time>2008-10-29T22:42:07Z</time>
      </trkpt>
      <trkpt lat="50.631649" lon="6.370411">
        <ele>410.000000</ele>
        <time>2008-10-29T22:42:10Z</time>
      </trkpt>
      <trkpt lat="50.631071" lon="6.371406">
        <ele>393.000000</ele>
        <time>2008-10-29T22:42:45Z</time>
      </trkpt>
      <trkpt lat="50.630691" lon="6.371873">
        <ele>393.000000</ele>
        <time>2008-10-29T22:43:04Z</time>
      </trkpt>
      <trkpt lat="50.630560" lon="6.372004">
        <ele>393.000000</ele>
        <time>2008-10-29T22:43:10Z</time>
      </trkpt>
      <trkpt lat="50.630157" lon="6.372539">
        <ele>381.000000</ele>
        <time>2008-10-29T22:43:31Z</time>
      </trkpt>
      <trkpt lat="50.629819" lon="6.372967">
        <ele>382.000000</ele>
        <time>2008-10-29T22:43:49Z</time>
      </trkpt>
      <trkpt lat="50.629600" lon="6.373500">
        <ele>382.000000</ele>
        <time>2008-10-29T22:44:05Z</time>
      </trkpt>
      <trkpt lat="50.629286" lon="6.374057">
        <ele>367.000000</ele>
        <time>2008-10-29T22:44:24Z</time>
      </trkpt>
      <trkpt lat="50.628985" lon="6.374801">
        <ele>372.000000</ele>
        <time>2008-10-29T22:44:46Z</time>
      </trkpt>
      <trkpt lat="50.628587" lon="6.375550">
        <ele>346.000000</ele>
        <time>2008-10-29T22:45:11Z</time>
      </trkpt>
      <trkpt lat="50.628583" lon="6.375792">
        <ele>346.000000</ele>
        <time>2008-10-29T22:45:17Z</time>
      </trkpt>
      <trkpt lat="50.628677" lon="6.376545">
        <ele>344.000000</ele>
        <time>2008-10-29T22:45:36Z</time>
      </trkpt>
      <trkpt lat="50.628678" lon="6.376701">
        <ele>344.000000</ele>
        <time>2008-10-29T22:45:40Z</time>
      </trkpt>
      <trkpt lat="50.628616" lon="6.377230">
        <ele>341.000000</ele>
        <time>2008-10-29T22:45:54Z</time>
      </trkpt>
      <trkpt lat="50.628615" lon="6.378063">
        <ele>338.000000</ele>
        <time>2008-10-29T22:46:15Z</time>
      </trkpt>
      <trkpt lat="50.628586" lon="6.378473">
        <ele>338.000000</ele>
        <time>2008-10-29T22:46:26Z</time>
      </trkpt>
      <trkpt lat="50.628494" lon="6.378977">
        <ele>336.000000</ele>
        <time>2008-10-29T22:46:39Z</time>
      </trkpt>
      <trkpt lat="50.628446" lon="6.379541">
        <ele>336.000000</ele>
        <time>2008-10-29T22:46:53Z</time>
      </trkpt>
      <trkpt lat="50.628353" lon="6.379555">
        <ele>336.000000</ele>
        <time>2008-10-29T22:46:57Z</time>
      </trkpt>
      <trkpt lat="50.628355" lon="6.379324">
        <ele>336.000000</ele>
        <time>2008-10-29T22:47:03Z</time>
      </trkpt>
      <trkpt lat="50.628084" lon="6.377564">
        <ele>341.000000</ele>
        <time>2008-10-29T22:47:49Z</time>
      </trkpt>
      <trkpt lat="50.627931" lon="6.376567">
        <ele>344.000000</ele>
        <time>2008-10-29T22:48:15Z</time>
      </trkpt>
      <trkpt lat="50.627817" lon="6.376295">
        <ele>332.000000</ele>
        <time>2008-10-29T22:48:23Z</time>
      </trkpt>
      <trkpt lat="50.627630" lon="6.376202">
        <ele>339.000000</ele>
        <time>2008-10-29T22:48:31Z</time>
      </trkpt>
      <trkpt lat="50.627565" lon="6.376254">
        <ele>332.000000</ele>
        <time>2008-10-29T22:48:34Z</time>
      </trkpt>
      <trkpt lat="50.627499" lon="6.376385">
        <ele>332.000000</ele>
        <time>2008-10-29T22:48:38Z</time>
      </trkpt>
      <trkpt lat="50.627495" lon="6.376543">
        <ele>332.000000</ele>
        <time>2008-10-29T22:48:42Z</time>
      </trkpt>
      <trkpt lat="50.627489" lon="6.377131">
        <ele>326.000000</ele>
        <time>2008-10-29T22:48:57Z</time>
      </trkpt>
      <trkpt lat="50.627388" lon="6.378451">
        <ele>320.000000</ele>
        <time>2008-10-29T22:49:31Z</time>
      </trkpt>
      <trkpt lat="50.627580" lon="6.378440">
        <ele>320.000000</ele>
        <time>2008-10-29T22:49:39Z</time>
      </trkpt>
      <trkpt lat="50.627659" lon="6.378527">
        <ele>320.000000</ele>
        <time>2008-10-29T22:49:43Z</time>
      </trkpt>
      <trkpt lat="50.627737" lon="6.378741">
        <ele>320.000000</ele>
        <time>2008-10-29T22:49:49Z</time>
      </trkpt>
      <trkpt lat="50.627754" lon="6.378994">
        <ele>315.000000</ele>
        <time>2008-10-29T22:49:55Z</time>
      </trkpt>
      <trkpt lat="50.627777" lon="6.380168">
        <ele>309.000000</ele>
        <time>2008-10-29T22:50:25Z</time>
      </trkpt>
      <trkpt lat="50.627902" lon="6.380749">
        <ele>304.000000</ele>
        <time>2008-10-29T22:50:41Z</time>
      </trkpt>
      <trkpt lat="50.627983" lon="6.380938">
        <ele>325.000000</ele>
        <time>2008-10-29T22:50:47Z</time>
      </trkpt>
      <trkpt lat="50.628087" lon="6.381120">
        <ele>325.000000</ele>
        <time>2008-10-29T22:50:53Z</time>
      </trkpt>
      <trkpt lat="50.628355" lon="6.381542">
        <ele>316.000000</ele>
        <time>2008-10-29T22:51:08Z</time>
      </trkpt>
      <trkpt lat="50.628560" lon="6.381936">
        <ele>316.000000</ele>
        <time>2008-10-29T22:51:21Z</time>
      </trkpt>
      <trkpt lat="50.628774" lon="6.382354">
        <ele>326.000000</ele>
        <time>2008-10-29T22:51:35Z</time>
      </trkpt>
      <trkpt lat="50.629003" lon="6.382772">
        <ele>326.000000</ele>
        <time>2008-10-29T22:51:49Z</time>
      </trkpt>
      <trkpt lat="50.629066" lon="6.382998">
        <ele>311.000000</ele>
        <time>2008-10-29T22:51:55Z</time>
      </trkpt>
      <trkpt lat="50.629135" lon="6.383170">
        <ele>311.000000</ele>
        <time>2008-10-29T22:52:00Z</time>
      </trkpt>
      <trkpt lat="50.629248" lon="6.383388">
        <ele>311.000000</ele>
        <time>2008-10-29T22:52:07Z</time>
      </trkpt>
      <trkpt lat="50.629247" lon="6.383528">
        <ele>311.000000</ele>
        <time>2008-10-29T22:52:11Z</time>
      </trkpt>
      <trkpt lat="50.629461" lon="6.383794">
        <ele>302.000000</ele>
        <time>2008-10-29T22:52:22Z</time>
      </trkpt>
      <trkpt lat="50.629476" lon="6.383939">
        <ele>302.000000</ele>
        <time>2008-10-29T22:52:25Z</time>
      </trkpt>
      <trkpt lat="50.629524" lon="6.384003">
        <ele>302.000000</ele>
        <time>2008-10-29T22:52:28Z</time>
      </trkpt>
    </trkseg>
  </trk>

</gpx>
